| time (UTC) | temp F | wind direction | speed MPH | gust MPH | rain 1hr in | rain 24hr in | rain mn in | humidity % | barometer mb |
| 20260505013049 | 53 | 2 | 0.0 | 0.0 | 0.01 | 0.10 | 0.09 | 95 | 1015.9 |
| 20260505011543 | 53 | 359 | 0.0 | 0.0 | 0.02 | 0.10 | 0.09 | 95 | 1015.9 |
| 20260505010052 | 53 | 331 | 0.0 | 0.0 | 0.03 | 0.10 | 0.09 | 95 | 1015.8 |
| 20260505004548 | 53 | 350 | 0.0 | 0.0 | 0.03 | 0.09 | 0.08 | 95 | 1016.0 |
| 20260505003053 | 53 | 333 | 0.0 | 0.0 | 0.03 | 0.09 | 0.08 | 95 | 1015.8 |
| 20260505001541 | 53 | 358 | 0.0 | 0.0 | 0.02 | 0.08 | 0.07 | 95 | 1015.9 |
| 20260505000038 | 53 | 354 | 0.0 | 0.0 | 0.02 | 0.07 | 0.06 | 95 | 1016.0 |
| 20260504234537 | 53 | 360 | 0.0 | 0.0 | 0.02 | 0.06 | 0.05 | 95 | 1016.0 |
| 20260504233037 | 53 | 360 | 0.0 | 1.0 | 0.04 | 0.06 | 0.05 | 95 | 1015.9 |
| 20260504231536 | 53 | 27 | 0.0 | 11.0 | 0.03 | 0.05 | 0.04 | 94 | 1016.0 |
| 20260504230036 | 54 | 328 | 1.0 | 6.0 | 0.02 | 0.04 | 0.03 | 94 | 1016.2 |
| 20260504224537 | 54 | 360 | 0.0 | 0.0 | 0.02 | 0.04 | 0.03 | 93 | 1016.1 |
| 20260504223054 | 54 | 358 | 0.0 | 2.0 | 0.00 | 0.02 | 0.01 | 93 | 1016.2 |
| 20260504221535 | 54 | 337 | 0.0 | 0.0 | 0.00 | 0.02 | 0.01 | 92 | 1016.1 |
| 20260504220034 | 54 | 316 | 0.0 | 1.0 | 0.00 | 0.02 | 0.01 | 92 | 1015.9 |
| 20260504214534 | 55 | 330 | 0.0 | 0.0 | 0.00 | 0.02 | 0.01 | 91 | 1016.0 |
| 20260504213033 | 55 | 339 | 0.0 | 6.0 | 0.00 | 0.02 | 0.01 | 90 | 1016.1 |
| 20260504211546 | 56 | 296 | 0.0 | 1.0 | 0.00 | 0.02 | 0.01 | 89 | 1016.1 |
| 20260504210036 | 57 | 308 | 0.0 | 5.0 | 0.00 | 0.02 | 0.01 | 88 | 1016.0 |
| 20260504204533 | 58 | 343 | 0.0 | 6.0 | 0.00 | 0.02 | 0.01 | 90 | 1016.2 |
| 20260504203030 | 57 | 284 | 0.0 | 2.0 | 0.00 | 0.02 | 0.01 | 90 | 1016.3 |
| 20260504201530 | 56 | 318 | 0.0 | 4.0 | 0.00 | 0.02 | 0.01 | 90 | 1016.3 |
| 20260504200029 | 57 | 4 | 0.0 | 8.0 | 0.00 | 0.02 | 0.01 | 90 | 1016.3 |
| 20260504194529 | 57 | 303 | 0.0 | 6.0 | 0.00 | 0.02 | 0.01 | 88 | 1016.2 |
| 20260504193027 | 58 | 331 | 0.0 | 11.0 | 0.00 | 0.02 | 0.01 | 89 | 1016.3 |
| 20260504191527 | 57 | 338 | 2.0 | 9.0 | 0.00 | 0.02 | 0.01 | 88 | 1016.2 |
| 20260504190025 | 58 | 320 | 0.0 | 1.0 | 0.01 | 0.02 | 0.01 | 90 | 1016.1 |
| 20260504184536 | 57 | 319 | 0.0 | 7.0 | 0.01 | 0.02 | 0.01 | 89 | 1016.1 |
| 20260504183022 | 57 | 354 | 0.0 | 2.0 | 0.01 | 0.02 | 0.01 | 90 | 1016.2 |
| 20260504181521 | 57 | 333 | 1.0 | 10.0 | 0.01 | 0.02 | 0.01 | 88 | 1016.1 |
| 20260504180018 | 57 | 325 | 0.0 | 0.0 | 0.00 | 0.01 | 0.00 | 88 | 1016.2 |
| 20260504174517 | 56 | 335 | 0.0 | 6.0 | 0.00 | 0.02 | 0.00 | 88 | 1016.0 |
| 20260504173015 | 56 | 331 | 0.0 | 0.0 | 0.00 | 0.02 | 0.00 | 90 | 1016.0 |
| 20260504171512 | 55 | 348 | 0.0 | 0.0 | 0.00 | 0.02 | 0.00 | 91 | 1015.8 |
| 20260504081527 | 52 | 28 | 0.0 | 0.0 | 0.00 | 0.02 | 0.00 | 93 | 1014.8 |
| 20260504050001 | 53 | 27 | 0.0 | 0.0 | 0.00 | 0.02 | 0.02 | 92 | 1014.8 |
| 20260504044600 | 53 | 27 | 0.0 | 0.0 | 0.00 | 0.02 | 0.02 | 92 | 1014.6 |
| 20260504043104 | 52 | 27 | 0.0 | 0.0 | 0.00 | 0.02 | 0.02 | 92 | 1014.3 |
| 20260504041557 | 52 | 27 | 0.0 | 0.0 | 0.00 | 0.02 | 0.02 | 92 | 1014.2 |
| 20260504040131 | 52 | 27 | 0.0 | 0.0 | 0.00 | 0.02 | 0.02 | 91 | 1014.3 |
| 20260504034601 | 53 | 352 | 0.0 | 0.0 | 0.00 | 0.02 | 0.02 | 91 | 1014.0 |
| 20260504033056 | 53 | 352 | 0.0 | 0.0 | 0.00 | 0.02 | 0.02 | 91 | 1013.9 |
| 20260504031601 | 53 | 347 | 0.0 | 0.0 | 0.00 | 0.02 | 0.02 | 90 | 1014.0 |
| 20260504030053 | 53 | 347 | 0.0 | 0.0 | 0.00 | 0.02 | 0.02 | 90 | 1013.7 |
| 20260504024552 | 54 | 348 | 0.0 | 0.0 | 0.00 | 0.02 | 0.02 | 89 | 1013.6 |
| 20260504023052 | 54 | 347 | 0.0 | 0.0 | 0.00 | 0.02 | 0.02 | 88 | 1013.6 |
| 20260504021552 | 55 | 348 | 0.0 | 0.0 | 0.01 | 0.02 | 0.02 | 87 | 1013.6 |
| 20260504020107 | 56 | 350 | 0.0 | 0.0 | 0.01 | 0.02 | 0.02 | 88 | 1013.7 |
| 20260504014551 | 56 | 310 | 0.0 | 0.0 | 0.01 | 0.02 | 0.02 | 87 | 1013.6 |